G. O. Sars — LMEL — position and weather

sailwx.info

Track history (hours):
 
Tides and Currents Weather Stations Pressure Air Temp Water Temp Dewpoint Dewpoint Depression Visibility Wind Speed Wind Dir Waves Ship Positions

Oceanographic research ship G. O. Sars (Norway)

Detailed information on ship capabilities available from University of Delaware's Ocean Information Center and ARCUS's ALIAS (Arctic Logistics Information and Support) project.

Last reported at 2019-Feb-22 22:57 UTC. Time now 2019-Feb-22 23:33 UTC.
Position N 57°13' E 002°49'.

Type: Cargo ship. MMSI: 257105000.

Date/timePositionNaut miles runAvg speedWind from/ knotsBaromVisibWave heightAir tempDewpointWater temp
2019-Feb-22 22:57N 57°13' E 002°49'24 6.3
2019-Feb-22 19:12N 57°26' E 003°26'0 1.0
2019-Feb-22 18:56N 57°26' E 003°26'0 0.3
2019-Feb-22 17:59N 57°26' E 003°25'0 0.1
2019-Feb-22 17:23N 57°26' E 003°25'12 7.1
2019-Feb-22 15:40N 57°38' E 003°29'1 3.8
2019-Feb-22 15:26N 57°37' E 003°30'2 4.2
2019-Feb-22 14:57N 57°36' E 003°33'2 3.3
2019-Feb-22 14:26N 57°34' E 003°34'510.7
2019-Feb-22 13:59N 57°29' E 003°34'6 8.2
2019-Feb-22 13:14N 57°23' E 003°33'1 3.9
2019-Feb-22 13:00N 57°24' E 003°31'3 3.4
2019-Feb-22 12:10N 57°24' E 003°26'4 9.2
2019-Feb-22 11:44N 57°24' E 003°19'311.0
2019-Feb-22 11:27N 57°24' E 003°13'610.9
2019-Feb-22 10:56N 57°24' E 003°03'610.7
2019-Feb-22 10:22N 57°24' E 002°51'1 3.9
2019-Feb-22 10:00N 57°23' E 002°51'3 4.5
2019-Feb-22 09:22N 57°20' E 002°50'1 2.8
2019-Feb-22 08:58N 57°20' E 002°48'611.2
2019-Feb-22 08:28N 57°19' E 002°38'6 4.5
2019-Feb-22 07:08N 57°22' E 002°27'0 0.3
2019-Feb-22 06:07N 57°22' E 002°27'1 3.1
2019-Feb-22 05:54N 57°23' E 002°27'25 8.0
2019-Feb-22 02:42N 57°48' E 002°19'62 5.0
2019-Feb-21 14:17N 58°50' E 002°29'3 8.9
2019-Feb-21 13:57N 58°52' E 002°26'911.5
2019-Feb-21 13:11N 58°59' E 002°17'211.7
2019-Feb-21 13:00N 59°01' E 002°15'711.5
2019-Feb-21 12:24N 59°07' E 002°07'511.4
2019-Feb-21 11:59N 59°11' E 002°02'511.1
2019-Feb-21 11:30N 59°15' E 001°56'3 5.8
2019-Feb-21 11:00N 59°17' E 001°52'2 4.1
2019-Feb-21 10:30N 59°17' E 001°48'2 3.3
2019-Feb-21 10:00N 59°17' E 001°45'5 8.8
2019-Feb-21 09:28N 59°18' E 001°54'610.0
2019-Feb-21 08:54N 59°18' E 002°05'410.4
2019-Feb-21 08:30N 59°18' E 002°13'3 6.1
2019-Feb-21 08:00N 59°18' E 002°19'2 3.5
2019-Feb-21 07:30N 59°19' E 002°17'2 3.9
2019-Feb-21 07:00N 59°21' E 002°16'1 1.7
2019-Feb-21 06:24N 59°21' E 002°14'1 3.4
2019-Feb-21 05:59N 59°21' E 002°12'30 4.8
2019-Feb-20 23:45N 59°36' E 003°04'2 8.8
2019-Feb-20 23:30N 59°36' E 003°08'2 2.9
2019-Feb-20 22:57N 59°36' E 003°12'2 4.3
2019-Feb-20 22:29N 59°36' E 003°15'5 9.9
2019-Feb-20 22:00N 59°36' E 003°25'2 4.9
2019-Feb-20 21:29N 59°36' E 003°30'1 1.3
2019-Feb-20 21:00N 59°36' E 003°31'4 8.2
2019-Feb-20 20:30N 59°31' E 003°30'510.5
2019-Feb-20 20:00N 59°26' E 003°30'2 3.3
2019-Feb-20 19:30N 59°25' E 003°30'0 0.9
2019-Feb-20 19:00N 59°24' E 003°30'3 6.2
2019-Feb-20 18:29N 59°23' E 003°24'511.3
2019-Feb-20 18:00N 59°19' E 003°16'2 4.6
2019-Feb-20 17:30N 59°18' E 003°12'1 2.6
2019-Feb-20 17:00N 59°19' E 003°13'0 0.9
2019-Feb-20 16:29N 59°19' E 003°13'1 1.1
2019-Feb-20 15:55N 59°19' E 003°13'3 6.5
2019-Feb-20 15:25N 59°22' E 003°16'2 3.6
2019-Feb-20 14:59N 59°23' E 003°18'2 4.5
2019-Feb-20 14:30N 59°25' E 003°21'0 0.2
2019-Feb-20 14:00N 59°25' E 003°21'3 6.6
2019-Feb-20 13:30N 59°28' E 003°18'510.0
2019-Feb-20 12:58N 59°33' E 003°15'5 9.9
2019-Feb-20 12:30N 59°37' E 003°12'3 5.1
2019-Feb-20 12:00N 59°40' E 003°12'3 4.1
2019-Feb-20 11:20N 59°42' E 003°10'1 2.4
2019-Feb-20 10:59N 59°43' E 003°10'27 8.7
2019-Feb-20 07:53N 59°46' E 002°17'32 5.0
2019-Feb-20 01:29N 60°11' E 002°57'5 9.4
2019-Feb-20 00:59N 60°09' E 003°06'3 5.6
2019-Feb-20 00:30N 60°09' E 003°11'1 1.6
2019-Feb-20 00:00N 60°09' E 003°11'510.5
2019-Feb-19 23:30N 60°15' E 003°12'5 9.5
2019-Feb-19 23:00N 60°20' E 003°13'1 2.1
2019-Feb-19 22:29N 60°21' E 003°12'4 8.0
2019-Feb-19 22:00N 60°22' E 003°05'1 2.8
2019-Feb-19 21:30N 60°23' E 003°04'1 2.5
2019-Feb-19 21:00N 60°25' E 003°03'1 1.2
2019-Feb-19 20:30N 60°25' E 003°03'1 1.1
2019-Feb-19 20:00N 60°26' E 003°02'1 2.1
2019-Feb-19 19:30N 60°25' E 003°04'2 3.5
2019-Feb-19 19:00N 60°24' E 003°07'2 4.1
2019-Feb-19 18:30N 60°23' E 003°10'2 4.0
2019-Feb-19 17:59N 60°21' E 003°13'2 3.8
2019-Feb-19 17:30N 60°20' E 003°15'1 2.4
2019-Feb-19 17:00N 60°19' E 003°17'1 1.9
2019-Feb-19 16:30N 60°19' E 003°19'1 1.8
2019-Feb-19 16:00N 60°19' E 003°21'1 1.7
2019-Feb-19 15:30N 60°18' E 003°22'0 0.8
2019-Feb-19 15:00N 60°18' E 003°21'2 4.0
2019-Feb-19 14:30N 60°17' E 003°17'2 4.0
2019-Feb-19 14:00N 60°17' E 003°13'2 3.6
2019-Feb-19 13:29N 60°18' E 003°10'2 3.6
2019-Feb-19 13:00N 60°19' E 003°09'2 4.2
2019-Feb-19 12:30N 60°21' E 003°08'0 0.8
2019-Feb-19 11:59N 60°22' E 003°08'1 1.1
2019-Feb-19 11:30N 60°22' E 003°07'4 8.3
2019-Feb-19 11:00N 60°22' E 002°59'4 8.4
2019-Feb-19 10:30N 60°21' E 002°51'5 8.4
2019-Feb-19 09:57N 60°21' E 002°42'4 4.0
2019-Feb-19 09:03N 60°23' E 002°36'2 2.3
2019-Feb-19 07:58N 60°26' E 002°35'6 6.4
2019-Feb-19 06:58N 60°24' E 002°48'4 7.7
2019-Feb-19 06:30N 60°24' E 002°55'4 7.4
2019-Feb-19 05:59N 60°23' E 003°02'4 7.9
2019-Feb-19 05:30N 60°22' E 003°10'4 8.3
2019-Feb-19 05:00N 60°21' E 003°18'4 8.4
2019-Feb-19 04:29N 60°20' E 003°26'4 8.5
2019-Feb-19 04:00N 60°19' E 003°35'4 8.9
2019-Feb-19 03:30N 60°18' E 003°43'4 8.8
2019-Feb-19 02:59N 60°17' E 003°52'4 8.8
2019-Feb-19 02:30N 60°16' E 004°00'4 8.8
2019-Feb-19 02:00N 60°15' E 004°09'4 8.9
2019-Feb-19 01:30N 60°14' E 004°18'5 9.1
2019-Feb-19 01:00N 60°13' E 004°27'5 9.3
2019-Feb-19 00:29N 60°12' E 004°36'5 9.1
2019-Feb-19 00:00N 60°11' E 004°45'5 9.2
2019-Feb-18 23:30N 60°10' E 004°54'4 9.0
2019-Feb-18 23:00N 60°09' E 005°03'510.4
2019-Feb-18 22:30N 60°10' E 005°13'611.3
2019-Feb-18 22:00N 60°07' E 005°21'4 6.8
2019-Feb-18 21:29N 60°06' E 005°28'0 0.8
2019-Feb-18 20:59N 60°06' E 005°29'2 3.2
2019-Feb-18 20:30N 60°07' E 005°32'1 2.4
2019-Feb-18 19:59N 60°07' E 005°35'0 0.6
2019-Feb-18 19:29N 60°07' E 005°34'0 0.1
2019-Feb-18 19:00N 60°07' E 005°34'1 2.6
2019-Feb-18 18:30N 60°07' E 005°31'3 6.2
2019-Feb-18 18:00N 60°06' E 005°25'4 7.2
2019-Feb-18 17:30N 60°08' E 005°18'1 1.8
2019-Feb-18 16:59N 60°08' E 005°18'1 1.5
2019-Feb-18 16:30N 60°08' E 005°19'1 2.7
2019-Feb-18 16:00N 60°08' E 005°21'4 8.4
2019-Feb-18 15:30N 60°10' E 005°15'5 9.2
2019-Feb-18 15:00N 60°14' E 005°10'4 8.4
2019-Feb-18 14:30N 60°18' E 005°12'4 7.5
2019-Feb-18 14:00N 60°22' E 005°10'4 7.6
2019-Feb-18 13:30N 60°24' E 005°16'2 3.2
2019-Feb-18 13:00N 60°24' E 005°19'0 0.0
2019-Feb-18 12:28N 60°24' E 005°19'0 0.0
2019-Feb-18 12:00N 60°24' E 005°19'0 0.0
2019-Feb-18 11:27N 60°24' E 005°19'0 0.0
2019-Feb-18 10:57N 60°24' E 005°19'0 0.0
2019-Feb-18 10:30N 60°24' E 005°19'0 0.0
2019-Feb-18 10:00N 60°24' E 005°19'0 0.0
2019-Feb-18 09:30N 60°24' E 005°19'0 0.0
2019-Feb-18 09:01N 60°24' E 005°19'0 0.0
2019-Feb-18 08:27N 60°24' E 005°19'0 0.0
2019-Feb-18 08:01N 60°24' E 005°19'0 0.0
2019-Feb-18 07:30N 60°24' E 005°19'0 0.0
2019-Feb-18 07:01N 60°24' E 005°19'0 0.0
2019-Feb-18 06:31N 60°24' E 005°19'0 0.0
2019-Feb-18 06:00N 60°24' E 005°19'0 0.0
2019-Feb-18 05:30N 60°24' E 005°19'0 0.0
2019-Feb-18 05:00N 60°24' E 005°19'0 0.0
2019-Feb-18 04:30N 60°24' E 005°19'0 0.0
2019-Feb-18 04:00N 60°24' E 005°19'0 0.0
2019-Feb-18 03:30N 60°24' E 005°19'0 0.0
2019-Feb-18 03:01N 60°24' E 005°19'0 0.0
2019-Feb-18 02:30N 60°24' E 005°19'0 0.0
2019-Feb-18 02:00N 60°24' E 005°19'0 0.0
2019-Feb-18 01:30N 60°24' E 005°19'0 0.0
2019-Feb-18 01:00N 60°24' E 005°19'0 0.0
2019-Feb-18 00:30N 60°24' E 005°19'0 0.0
2019-Feb-18 00:00N 60°24' E 005°19'0 0.0
2019-Feb-17 23:30N 60°24' E 005°19'0 0.0
2019-Feb-17 23:00N 60°24' E 005°19'0 0.0
2019-Feb-17 22:30N 60°24' E 005°19'0 0.0
2019-Feb-17 22:00N 60°24' E 005°19'3 5.4
2019-Feb-17 21:30N 60°24' E 005°13'510.7
2019-Feb-17 20:59N 60°25' E 005°03'611.5
2019-Feb-17 20:31N 60°30' E 004°58'611.4
2019-Feb-17 20:00N 60°36' E 004°54'611.5
2019-Feb-17 19:31N 60°41' E 004°50'4 8.8
2019-Feb-17 19:00N 60°44' E 004°43'510.0
2019-Feb-17 18:30N 60°44' E 004°33'5 9.5
2019-Feb-17 18:00N 60°43' E 004°24'5 9.7
2019-Feb-17 17:30N 60°41' E 004°14'5 9.7
2019-Feb-17 17:00N 60°40' E 004°05'5 9.8
2019-Feb-17 16:30N 60°39' E 003°55'510.1
2019-Feb-17 16:00N 60°38' E 003°45'5 9.8
2019-Feb-17 15:29N 60°36' E 003°35'510.2
2019-Feb-17 15:00N 60°35' E 003°25'510.1
2019-Feb-17 14:30N 60°34' E 003°15'4 8.2
2019-Feb-17 14:00N 60°33' E 003°07'2 3.2
2019-Feb-17 13:30N 60°32' E 003°10'1 2.3
2019-Feb-17 13:00N 60°32' E 003°12'0 0.8
2019-Feb-17 12:30N 60°32' E 003°13'1 1.4
2019-Feb-17 12:00N 60°32' E 003°12'1 1.4
2019-Feb-17 11:30N 60°32' E 003°11'1 2.4
2019-Feb-17 11:00N 60°34' E 003°11'4 7.9
2019-Feb-17 10:30N 60°30' E 003°10'2 3.1
2019-Feb-17 10:00N 60°31' E 003°11'2 4.1
2019-Feb-17 09:30N 60°33' E 003°11'1 1.6
2019-Feb-17 09:00N 60°34' E 003°10'2 4.8
2019-Feb-17 08:30N 60°35' E 003°06'2 3.6
2019-Feb-17 08:00N 60°37' E 003°04'2 4.2
2019-Feb-17 07:30N 60°39' E 003°02'0 0.7
2019-Feb-17 07:00N 60°39' E 003°02'1 1.1
2019-Feb-17 06:30N 60°39' E 003°02'1 1.7
2019-Feb-17 06:00N 60°40' E 003°02'5 9.2
2019-Feb-17 05:30N 60°43' E 003°09'5 9.3
2019-Feb-17 05:00N 60°46' E 003°16'1 2.7
2019-Feb-17 04:30N 60°47' E 003°15'2 3.4
2019-Feb-17 04:00N 60°47' E 003°18'510.7
2019-Feb-17 03:30N 60°47' E 003°29'4 9.0
2019-Feb-17 03:00N 60°46' E 003°38'1 2.2
2019-Feb-17 02:30N 60°46' E 003°35'3 5.2
2019-Feb-17 02:00N 60°44' E 003°32'510.8
2019-Feb-17 01:30N 60°40' E 003°25'2 4.1
2019-Feb-17 01:00N 60°38' E 003°23'2 3.6
2019-Feb-17 00:30N 60°37' E 003°20'510.1
2019-Feb-17 00:00N 60°37' E 003°09'510.4
2019-Feb-16 23:30N 60°37' E 002°58'3 6.2
2019-Feb-16 23:00N 60°37' E 002°52'1 2.0
2019-Feb-16 22:30N 60°37' E 002°50'510.5
2019-Feb-16 22:00N 60°37' E 002°40'4 7.1
2019-Feb-16 21:30N 60°37' E 002°32'1 1.8
2019-Feb-16 20:57N 60°38' E 002°30'3 7.3
2019-Feb-16 20:30N 60°40' E 002°26'5 9.0
2019-Feb-16 19:53N 60°44' E 002°19'1 3.1
2019-Feb-16 19:30N 60°45' E 002°17'4 6.3
2019-Feb-16 18:48N 60°50' E 002°14'6 5.4
2019-Feb-16 17:42N 60°55' E 002°11'8 8.6
2019-Feb-16 16:49N 61°03' E 002°09'310.5
2019-Feb-16 16:30N 61°06' E 002°08'2 3.6
2019-Feb-16 16:00N 61°08' E 002°08'1 1.5
2019-Feb-16 15:23N 61°07' E 002°08'2 3.9
2019-Feb-16 14:48N 61°05' E 002°10'0 1.3
2019-Feb-16 14:30N 61°05' E 002°10'8 9.6
2019-Feb-16 13:42N 60°59' E 002°20'3 9.6
2019-Feb-16 13:25N 60°56' E 002°23'11 9.6
2019-Feb-16 12:19N 60°47' E 002°35'3 4.2
2019-Feb-16 11:33N 60°45' E 002°39'1 3.8
2019-Feb-16 11:23N 60°45' E 002°40'1 2.3
2019-Feb-16 10:56N 60°45' E 002°39'1 2.0
2019-Feb-16 10:15N 60°46' E 002°37'1 3.7
2019-Feb-16 10:00N 60°46' E 002°38'2 3.7
2019-Feb-16 09:21N 60°44' E 002°42'7 4.1
2019-Feb-16 07:34N 60°37' E 002°36'0 4.4
2019-Feb-16 07:31N 60°37' E 002°36'1 2.0
2019-Feb-16 07:00N 60°36' E 002°37'30 2.5
2019-Feb-15 19:09N 60°53' E 001°48'0 1.9
2019-Feb-15 18:57N 60°54' E 001°48'1 2.0
2019-Feb-15 18:28N 60°55' E 001°48'1 1.9
2019-Feb-15 18:00N 60°56' E 001°47'1 2.8
2019-Feb-15 17:30N 60°55' E 001°50'4 8.0
2019-Feb-15 17:01N 60°54' E 001°57'4 8.0
2019-Feb-15 16:30N 60°52' E 002°05'4 7.7
2019-Feb-15 16:00N 60°50' E 002°12'3 6.6
2019-Feb-15 15:30N 60°49' E 002°18'3 5.6
2019-Feb-15 15:00N 60°47' E 002°23'1 2.0
2019-Feb-15 14:30N 60°46' E 002°24'5 9.1
2019-Feb-15 13:59N 60°46' E 002°14'5 9.5
2019-Feb-15 13:29N 60°47' E 002°05'5 9.8
2019-Feb-15 13:00N 60°47' E 001°55'5 9.8
2019-Feb-15 12:30N 60°47' E 001°45'5 9.8
2019-Feb-15 12:00N 60°47' E 001°35'510.0
2019-Feb-15 11:31N 60°47' E 001°25'510.0
2019-Feb-15 11:00N 60°48' E 001°15'1 3.0
2019-Feb-15 10:30N 60°47' E 001°15'2 4.2
2019-Feb-15 10:00N 60°45' E 001°16'1 2.1
2019-Feb-15 09:31N 60°44' E 001°17'3 6.7
2019-Feb-15 09:00N 60°41' E 001°21'4 8.2
2019-Feb-15 08:30N 60°38' E 001°26'1 3.0
2019-Feb-15 08:00N 60°37' E 001°29'2 3.9
2019-Feb-15 07:30N 60°38' E 001°33'1 1.6
2019-Feb-15 07:00N 60°38' E 001°35'0 0.5
2019-Feb-15 06:31N 60°38' E 001°35'1 1.1
2019-Feb-15 05:59N 60°38' E 001°34'13 6.3
2019-Feb-15 03:57N 60°25' E 001°34'2 2.5
2019-Feb-15 03:20N 60°23' E 001°33'2 5.5
2019-Feb-15 03:00N 60°22' E 001°33'611.2
2019-Feb-15 02:30N 60°16' E 001°33'511.1
2019-Feb-15 02:01N 60°11' E 001°32'2 3.3
2019-Feb-15 01:30N 60°09' E 001°31'2 4.9
2019-Feb-15 01:00N 60°07' E 001°31'510.6
2019-Feb-15 00:29N 60°01' E 001°31'510.6
2019-Feb-14 23:59N 59°56' E 001°30'2 4.4
2019-Feb-14 23:30N 59°54' E 001°29'2 3.4
2019-Feb-14 23:00N 59°52' E 001°29'710.8
2019-Feb-14 22:19N 59°45' E 001°27'310.7
2019-Feb-14 22:00N 59°41' E 001°27'3 4.7
2019-Feb-14 21:17N 59°38' E 001°26'1 2.1
2019-Feb-14 20:44N 59°37' E 001°25'510.4
2019-Feb-14 20:16N 59°32' E 001°27'6 7.9
2019-Feb-14 19:33N 59°26' E 001°27'0 3.2
2019-Feb-14 19:30N 59°26' E 001°27'1 2.6
2019-Feb-14 19:01N 59°25' E 001°27'19 2.8
2019-Feb-14 11:58N 59°44' E 001°24'56 2.0
2019-Feb-13 08:28N 60°07' W 000°19'  
Track history (hours):
 
Tides and Currents Weather Stations Pressure Air Temp Water Temp Dewpoint Dewpoint Depression Visibility Wind Speed Wind Dir Waves Ship Positions

Oceanographic research ship G. O. Sars (Norway)

Detailed information on ship capabilities available from University of Delaware's Ocean Information Center and ARCUS's ALIAS (Arctic Logistics Information and Support) project.

Last reported at 2019-Feb-22 22:57 UTC. Time now 2019-Feb-22 23:33 UTC.
Position N 57°13' E 002°49'.

Type: Cargo ship. MMSI: 257105000.

Date/timePositionNaut miles runAvg speedWind from/ knotsBaromVisibWave heightAir tempDewpointWater temp
2019-Feb-22 22:57N 57°13' E 002°49'24 6.3
2019-Feb-22 19:12N 57°26' E 003°26'0 1.0
2019-Feb-22 18:56N 57°26' E 003°26'0 0.3
2019-Feb-22 17:59N 57°26' E 003°25'0 0.1
2019-Feb-22 17:23N 57°26' E 003°25'12 7.1
2019-Feb-22 15:40N 57°38' E 003°29'1 3.8
2019-Feb-22 15:26N 57°37' E 003°30'2 4.2
2019-Feb-22 14:57N 57°36' E 003°33'2 3.3
2019-Feb-22 14:26N 57°34' E 003°34'510.7
2019-Feb-22 13:59N 57°29' E 003°34'6 8.2
2019-Feb-22 13:14N 57°23' E 003°33'1 3.9
2019-Feb-22 13:00N 57°24' E 003°31'3 3.4
2019-Feb-22 12:10N 57°24' E 003°26'4 9.2
2019-Feb-22 11:44N 57°24' E 003°19'311.0
2019-Feb-22 11:27N 57°24' E 003°13'610.9
2019-Feb-22 10:56N 57°24' E 003°03'610.7
2019-Feb-22 10:22N 57°24' E 002°51'1 3.9
2019-Feb-22 10:00N 57°23' E 002°51'3 4.5
2019-Feb-22 09:22N 57°20' E 002°50'1 2.8
2019-Feb-22 08:58N 57°20' E 002°48'611.2
2019-Feb-22 08:28N 57°19' E 002°38'6 4.5
2019-Feb-22 07:08N 57°22' E 002°27'0 0.3
2019-Feb-22 06:07N 57°22' E 002°27'1 3.1
2019-Feb-22 05:54N 57°23' E 002°27'25 8.0
2019-Feb-22 02:42N 57°48' E 002°19'62 5.0
2019-Feb-21 14:17N 58°50' E 002°29'3 8.9
2019-Feb-21 13:57N 58°52' E 002°26'911.5
2019-Feb-21 13:11N 58°59' E 002°17'211.7
2019-Feb-21 13:00N 59°01' E 002°15'711.5
2019-Feb-21 12:24N 59°07' E 002°07'511.4
2019-Feb-21 11:59N 59°11' E 002°02'511.1
2019-Feb-21 11:30N 59°15' E 001°56'3 5.8
2019-Feb-21 11:00N 59°17' E 001°52'2 4.1
2019-Feb-21 10:30N 59°17' E 001°48'2 3.3
2019-Feb-21 10:00N 59°17' E 001°45'5 8.8
2019-Feb-21 09:28N 59°18' E 001°54'610.0
2019-Feb-21 08:54N 59°18' E 002°05'410.4
2019-Feb-21 08:30N 59°18' E 002°13'3 6.1
2019-Feb-21 08:00N 59°18' E 002°19'2 3.5
2019-Feb-21 07:30N 59°19' E 002°17'2 3.9
2019-Feb-21 07:00N 59°21' E 002°16'1 1.7
2019-Feb-21 06:24N 59°21' E 002°14'1 3.4
2019-Feb-21 05:59N 59°21' E 002°12'30 4.8
2019-Feb-20 23:45N 59°36' E 003°04'2 8.8
2019-Feb-20 23:30N 59°36' E 003°08'2 2.9
2019-Feb-20 22:57N 59°36' E 003°12'2 4.3
2019-Feb-20 22:29N 59°36' E 003°15'5 9.9
2019-Feb-20 22:00N 59°36' E 003°25'2 4.9
2019-Feb-20 21:29N 59°36' E 003°30'1 1.3
2019-Feb-20 21:00N 59°36' E 003°31'4 8.2
2019-Feb-20 20:30N 59°31' E 003°30'510.5
2019-Feb-20 20:00N 59°26' E 003°30'2 3.3
2019-Feb-20 19:30N 59°25' E 003°30'0 0.9
2019-Feb-20 19:00N 59°24' E 003°30'3 6.2
2019-Feb-20 18:29N 59°23' E 003°24'511.3
2019-Feb-20 18:00N 59°19' E 003°16'2 4.6
2019-Feb-20 17:30N 59°18' E 003°12'1 2.6
2019-Feb-20 17:00N 59°19' E 003°13'0 0.9
2019-Feb-20 16:29N 59°19' E 003°13'1 1.1
2019-Feb-20 15:55N 59°19' E 003°13'3 6.5
2019-Feb-20 15:25N 59°22' E 003°16'2 3.6
2019-Feb-20 14:59N 59°23' E 003°18'2 4.5
2019-Feb-20 14:30N 59°25' E 003°21'0 0.2
2019-Feb-20 14:00N 59°25' E 003°21'3 6.6
2019-Feb-20 13:30N 59°28' E 003°18'510.0
2019-Feb-20 12:58N 59°33' E 003°15'5 9.9
2019-Feb-20 12:30N 59°37' E 003°12'3 5.1
2019-Feb-20 12:00N 59°40' E 003°12'3 4.1
2019-Feb-20 11:20N 59°42' E 003°10'1 2.4
2019-Feb-20 10:59N 59°43' E 003°10'27 8.7
2019-Feb-20 07:53N 59°46' E 002°17'32 5.0
2019-Feb-20 01:29N 60°11' E 002°57'5 9.4
2019-Feb-20 00:59N 60°09' E 003°06'3 5.6
2019-Feb-20 00:30N 60°09' E 003°11'1 1.6
2019-Feb-20 00:00N 60°09' E 003°11'510.5
2019-Feb-19 23:30N 60°15' E 003°12'5 9.5
2019-Feb-19 23:00N 60°20' E 003°13'1 2.1
2019-Feb-19 22:29N 60°21' E 003°12'4 8.0
2019-Feb-19 22:00N 60°22' E 003°05'1 2.8
2019-Feb-19 21:30N 60°23' E 003°04'1 2.5
2019-Feb-19 21:00N 60°25' E 003°03'1 1.2
2019-Feb-19 20:30N 60°25' E 003°03'1 1.1
2019-Feb-19 20:00N 60°26' E 003°02'1 2.1
2019-Feb-19 19:30N 60°25' E 003°04'2 3.5
2019-Feb-19 19:00N 60°24' E 003°07'2 4.1
2019-Feb-19 18:30N 60°23' E 003°10'2 4.0
2019-Feb-19 17:59N 60°21' E 003°13'2 3.8
2019-Feb-19 17:30N 60°20' E 003°15'1 2.4
2019-Feb-19 17:00N 60°19' E 003°17'1 1.9
2019-Feb-19 16:30N 60°19' E 003°19'1 1.8
2019-Feb-19 16:00N 60°19' E 003°21'1 1.7
2019-Feb-19 15:30N 60°18' E 003°22'0 0.8
2019-Feb-19 15:00N 60°18' E 003°21'2 4.0
2019-Feb-19 14:30N 60°17' E 003°17'2 4.0
2019-Feb-19 14:00N 60°17' E 003°13'2 3.6
2019-Feb-19 13:29N 60°18' E 003°10'2 3.6
2019-Feb-19 13:00N 60°19' E 003°09'2 4.2
2019-Feb-19 12:30N 60°21' E 003°08'0 0.8
2019-Feb-19 11:59N 60°22' E 003°08'1 1.1
2019-Feb-19 11:30N 60°22' E 003°07'4 8.3
2019-Feb-19 11:00N 60°22' E 002°59'4 8.4
2019-Feb-19 10:30N 60°21' E 002°51'5 8.4
2019-Feb-19 09:57N 60°21' E 002°42'4 4.0
2019-Feb-19 09:03N 60°23' E 002°36'2 2.3
2019-Feb-19 07:58N 60°26' E 002°35'6 6.4
2019-Feb-19 06:58N 60°24' E 002°48'4 7.7
2019-Feb-19 06:30N 60°24' E 002°55'4 7.4
2019-Feb-19 05:59N 60°23' E 003°02'4 7.9
2019-Feb-19 05:30N 60°22' E 003°10'4 8.3
2019-Feb-19 05:00N 60°21' E 003°18'4 8.4
2019-Feb-19 04:29N 60°20' E 003°26'4 8.5
2019-Feb-19 04:00N 60°19' E 003°35'4 8.9
2019-Feb-19 03:30N 60°18' E 003°43'4 8.8
2019-Feb-19 02:59N 60°17' E 003°52'4 8.8
2019-Feb-19 02:30N 60°16' E 004°00'4 8.8
2019-Feb-19 02:00N 60°15' E 004°09'4 8.9
2019-Feb-19 01:30N 60°14' E 004°18'5 9.1
2019-Feb-19 01:00N 60°13' E 004°27'5 9.3
2019-Feb-19 00:29N 60°12' E 004°36'5 9.1
2019-Feb-19 00:00N 60°11' E 004°45'5 9.2
2019-Feb-18 23:30N 60°10' E 004°54'4 9.0
2019-Feb-18 23:00N 60°09' E 005°03'510.4
2019-Feb-18 22:30N 60°10' E 005°13'611.3
2019-Feb-18 22:00N 60°07' E 005°21'4 6.8
2019-Feb-18 21:29N 60°06' E 005°28'0 0.8
2019-Feb-18 20:59N 60°06' E 005°29'2 3.2
2019-Feb-18 20:30N 60°07' E 005°32'1 2.4
2019-Feb-18 19:59N 60°07' E 005°35'0 0.6
2019-Feb-18 19:29N 60°07' E 005°34'0 0.1
2019-Feb-18 19:00N 60°07' E 005°34'1 2.6
2019-Feb-18 18:30N 60°07' E 005°31'3 6.2
2019-Feb-18 18:00N 60°06' E 005°25'4 7.2
2019-Feb-18 17:30N 60°08' E 005°18'1 1.8
2019-Feb-18 16:59N 60°08' E 005°18'1 1.5
2019-Feb-18 16:30N 60°08' E 005°19'1 2.7
2019-Feb-18 16:00N 60°08' E 005°21'4 8.4
2019-Feb-18 15:30N 60°10' E 005°15'5 9.2
2019-Feb-18 15:00N 60°14' E 005°10'4 8.4
2019-Feb-18 14:30N 60°18' E 005°12'4 7.5
2019-Feb-18 14:00N 60°22' E 005°10'4 7.6
2019-Feb-18 13:30N 60°24' E 005°16'2 3.2
2019-Feb-18 13:00N 60°24' E 005°19'0 0.0
2019-Feb-18 12:28N 60°24' E 005°19'0 0.0
2019-Feb-18 12:00N 60°24' E 005°19'0 0.0
2019-Feb-18 11:27N 60°24' E 005°19'0 0.0
2019-Feb-18 10:57N 60°24' E 005°19'0 0.0
2019-Feb-18 10:30N 60°24' E 005°19'0 0.0
2019-Feb-18 10:00N 60°24' E 005°19'0 0.0
2019-Feb-18 09:30N 60°24' E 005°19'0 0.0
2019-Feb-18 09:01N 60°24' E 005°19'0 0.0
2019-Feb-18 08:27N 60°24' E 005°19'0 0.0
2019-Feb-18 08:01N 60°24' E 005°19'0 0.0
2019-Feb-18 07:30N 60°24' E 005°19'0 0.0
2019-Feb-18 07:01N 60°24' E 005°19'0 0.0
2019-Feb-18 06:31N 60°24' E 005°19'0 0.0
2019-Feb-18 06:00N 60°24' E 005°19'0 0.0
2019-Feb-18 05:30N 60°24' E 005°19'0 0.0
2019-Feb-18 05:00N 60°24' E 005°19'0 0.0
2019-Feb-18 04:30N 60°24' E 005°19'0 0.0
2019-Feb-18 04:00N 60°24' E 005°19'0 0.0
2019-Feb-18 03:30N 60°24' E 005°19'0 0.0
2019-Feb-18 03:01N 60°24' E 005°19'0 0.0
2019-Feb-18 02:30N 60°24' E 005°19'0 0.0
2019-Feb-18 02:00N 60°24' E 005°19'0 0.0
2019-Feb-18 01:30N 60°24' E 005°19'0 0.0
2019-Feb-18 01:00N 60°24' E 005°19'0 0.0
2019-Feb-18 00:30N 60°24' E 005°19'0 0.0
2019-Feb-18 00:00N 60°24' E 005°19'0 0.0
2019-Feb-17 23:30N 60°24' E 005°19'0 0.0
2019-Feb-17 23:00N 60°24' E 005°19'0 0.0
2019-Feb-17 22:30N 60°24' E 005°19'0 0.0
2019-Feb-17 22:00N 60°24' E 005°19'3 5.4
2019-Feb-17 21:30N 60°24' E 005°13'510.7
2019-Feb-17 20:59N 60°25' E 005°03'611.5
2019-Feb-17 20:31N 60°30' E 004°58'611.4
2019-Feb-17 20:00N 60°36' E 004°54'611.5
2019-Feb-17 19:31N 60°41' E 004°50'4 8.8
2019-Feb-17 19:00N 60°44' E 004°43'510.0
2019-Feb-17 18:30N 60°44' E 004°33'5 9.5
2019-Feb-17 18:00N 60°43' E 004°24'5 9.7
2019-Feb-17 17:30N 60°41' E 004°14'5 9.7
2019-Feb-17 17:00N 60°40' E 004°05'5 9.8
2019-Feb-17 16:30N 60°39' E 003°55'510.1
2019-Feb-17 16:00N 60°38' E 003°45'5 9.8
2019-Feb-17 15:29N 60°36' E 003°35'510.2
2019-Feb-17 15:00N 60°35' E 003°25'510.1
2019-Feb-17 14:30N 60°34' E 003°15'4 8.2
2019-Feb-17 14:00N 60°33' E 003°07'2 3.2
2019-Feb-17 13:30N 60°32' E 003°10'1 2.3
2019-Feb-17 13:00N 60°32' E 003°12'0 0.8
2019-Feb-17 12:30N 60°32' E 003°13'1 1.4
2019-Feb-17 12:00N 60°32' E 003°12'1 1.4
2019-Feb-17 11:30N 60°32' E 003°11'1 2.4
2019-Feb-17 11:00N 60°34' E 003°11'4 7.9
2019-Feb-17 10:30N 60°30' E 003°10'2 3.1
2019-Feb-17 10:00N 60°31' E 003°11'2 4.1
2019-Feb-17 09:30N 60°33' E 003°11'1 1.6
2019-Feb-17 09:00N 60°34' E 003°10'2 4.8
2019-Feb-17 08:30N 60°35' E 003°06'2 3.6
2019-Feb-17 08:00N 60°37' E 003°04'2 4.2
2019-Feb-17 07:30N 60°39' E 003°02'0 0.7
2019-Feb-17 07:00N 60°39' E 003°02'1 1.1
2019-Feb-17 06:30N 60°39' E 003°02'1 1.7
2019-Feb-17 06:00N 60°40' E 003°02'5 9.2
2019-Feb-17 05:30N 60°43' E 003°09'5 9.3
2019-Feb-17 05:00N 60°46' E 003°16'1 2.7
2019-Feb-17 04:30N 60°47' E 003°15'2 3.4
2019-Feb-17 04:00N 60°47' E 003°18'510.7
2019-Feb-17 03:30N 60°47' E 003°29'4 9.0
2019-Feb-17 03:00N 60°46' E 003°38'1 2.2
2019-Feb-17 02:30N 60°46' E 003°35'3 5.2
2019-Feb-17 02:00N 60°44' E 003°32'510.8
2019-Feb-17 01:30N 60°40' E 003°25'2 4.1
2019-Feb-17 01:00N 60°38' E 003°23'2 3.6
2019-Feb-17 00:30N 60°37' E 003°20'510.1
2019-Feb-17 00:00N 60°37' E 003°09'510.4
2019-Feb-16 23:30N 60°37' E 002°58'3 6.2
2019-Feb-16 23:00N 60°37' E 002°52'1 2.0
2019-Feb-16 22:30N 60°37' E 002°50'510.5
2019-Feb-16 22:00N 60°37' E 002°40'4 7.1
2019-Feb-16 21:30N 60°37' E 002°32'1 1.8
2019-Feb-16 20:57N 60°38' E 002°30'3 7.3
2019-Feb-16 20:30N 60°40' E 002°26'5 9.0
2019-Feb-16 19:53N 60°44' E 002°19'1 3.1
2019-Feb-16 19:30N 60°45' E 002°17'4 6.3
2019-Feb-16 18:48N 60°50' E 002°14'6 5.4
2019-Feb-16 17:42N 60°55' E 002°11'8 8.6
2019-Feb-16 16:49N 61°03' E 002°09'310.5
2019-Feb-16 16:30N 61°06' E 002°08'2 3.6
2019-Feb-16 16:00N 61°08' E 002°08'1 1.5
2019-Feb-16 15:23N 61°07' E 002°08'2 3.9
2019-Feb-16 14:48N 61°05' E 002°10'0 1.3
2019-Feb-16 14:30N 61°05' E 002°10'8 9.6
2019-Feb-16 13:42N 60°59' E 002°20'3 9.6
2019-Feb-16 13:25N 60°56' E 002°23'11 9.6
2019-Feb-16 12:19N 60°47' E 002°35'3 4.2
2019-Feb-16 11:33N 60°45' E 002°39'1 3.8
2019-Feb-16 11:23N 60°45' E 002°40'1 2.3
2019-Feb-16 10:56N 60°45' E 002°39'1 2.0
2019-Feb-16 10:15N 60°46' E 002°37'1 3.7
2019-Feb-16 10:00N 60°46' E 002°38'2 3.7
2019-Feb-16 09:21N 60°44' E 002°42'7 4.1
2019-Feb-16 07:34N 60°37' E 002°36'0 4.4
2019-Feb-16 07:31N 60°37' E 002°36'1 2.0
2019-Feb-16 07:00N 60°36' E 002°37'30 2.5
2019-Feb-15 19:09N 60°53' E 001°48'0 1.9
2019-Feb-15 18:57N 60°54' E 001°48'1 2.0
2019-Feb-15 18:28N 60°55' E 001°48'1 1.9
2019-Feb-15 18:00N 60°56' E 001°47'1 2.8
2019-Feb-15 17:30N 60°55' E 001°50'4 8.0
2019-Feb-15 17:01N 60°54' E 001°57'4 8.0
2019-Feb-15 16:30N 60°52' E 002°05'4 7.7
2019-Feb-15 16:00N 60°50' E 002°12'3 6.6
2019-Feb-15 15:30N 60°49' E 002°18'3 5.6
2019-Feb-15 15:00N 60°47' E 002°23'1 2.0
2019-Feb-15 14:30N 60°46' E 002°24'5 9.1
2019-Feb-15 13:59N 60°46' E 002°14'5 9.5
2019-Feb-15 13:29N 60°47' E 002°05'5 9.8
2019-Feb-15 13:00N 60°47' E 001°55'5 9.8
2019-Feb-15 12:30N 60°47' E 001°45'5 9.8
2019-Feb-15 12:00N 60°47' E 001°35'510.0
2019-Feb-15 11:31N 60°47' E 001°25'510.0
2019-Feb-15 11:00N 60°48' E 001°15'1 3.0
2019-Feb-15 10:30N 60°47' E 001°15'2 4.2
2019-Feb-15 10:00N 60°45' E 001°16'1 2.1
2019-Feb-15 09:31N 60°44' E 001°17'3 6.7
2019-Feb-15 09:00N 60°41' E 001°21'4 8.2
2019-Feb-15 08:30N 60°38' E 001°26'1 3.0
2019-Feb-15 08:00N 60°37' E 001°29'2 3.9
2019-Feb-15 07:30N 60°38' E 001°33'1 1.6
2019-Feb-15 07:00N 60°38' E 001°35'0 0.5
2019-Feb-15 06:31N 60°38' E 001°35'1 1.1
2019-Feb-15 05:59N 60°38' E 001°34'13 6.3
2019-Feb-15 03:57N 60°25' E 001°34'2 2.5
2019-Feb-15 03:20N 60°23' E 001°33'2 5.5
2019-Feb-15 03:00N 60°22' E 001°33'611.2
2019-Feb-15 02:30N 60°16' E 001°33'511.1
2019-Feb-15 02:01N 60°11' E 001°32'2 3.3
2019-Feb-15 01:30N 60°09' E 001°31'2 4.9
2019-Feb-15 01:00N 60°07' E 001°31'510.6
2019-Feb-15 00:29N 60°01' E 001°31'510.6
2019-Feb-14 23:59N 59°56' E 001°30'2 4.4
2019-Feb-14 23:30N 59°54' E 001°29'2 3.4
2019-Feb-14 23:00N 59°52' E 001°29'710.8
2019-Feb-14 22:19N 59°45' E 001°27'310.7
2019-Feb-14 22:00N 59°41' E 001°27'3 4.7
2019-Feb-14 21:17N 59°38' E 001°26'1 2.1
2019-Feb-14 20:44N 59°37' E 001°25'510.4
2019-Feb-14 20:16N 59°32' E 001°27'6 7.9
2019-Feb-14 19:33N 59°26' E 001°27'0 3.2
2019-Feb-14 19:30N 59°26' E 001°27'1 2.6
2019-Feb-14 19:01N 59°25' E 001°27'19 2.8
2019-Feb-14 11:58N 59°44' E 001°24'56 2.0
2019-Feb-13 08:28N 60°07' W 000°19'  

Dump ship's entire track history